Aeroporto :
LOGIN :

Iscrizione | Disclaimer

   EN    FR    IT 

 










Sommario :    VFR   VFR Marginale   IFR   IFR Intensivo   IFR Molto Intensivo
Visibilità : 
Base nubi : 
>= 8 km
>= 3000ft
5 / 8 km
1000 / 3000 ft
1500m / 5 km
500 / 1000 ft
800 / 1500m
200 / 500 ft
< 800m
< 200 ft
Simboli :   Temporali  Nebbia  Neve Forte  Precipitazioni Forti  Vento > 20 kt
SIGMETs :   Varie  Temporali  Ghiacco  Turbolenza  Onda orograficha  Ceneri Vulcaniche






- Altitudine del aeroporto : 1017 ft


LFSL - Brive Souillac

ULTIMO METAR :
  • 200630Z AUTO 00000KT CAVOK M02/M03 Q1011 NOSIG

METARs OBSOLETI :
  • 200600Z AUTO 00000KT CAVOK M02/M02 Q1011 TEMPO 4000 BR
  • 200530Z AUTO 00000KT CAVOK M02/M02 Q1011 TEMPO 4000 BR
  • 200500Z AUTO 00000KT CAVOK M02/M02 Q1011 TEMPO 4000 BR VV///
  • 200430Z AUTO 13002KT CAVOK M02/M02 Q1011 TEMPO 4000 BR VV///
  • 200400Z AUTO 14002KT CAVOK M02/M02 Q1011 TEMPO 0500 FG VV///

TAF TAF LFSL
Valido dal 20 a 06 ore il 20 a 15 ore UTC


200500Z 2006/2015 VRB02KT CAVOK
PROB40
TEMPO 2006/2007 4000 BR



MetMap, La meteo Aeronautica in un colpo d'occhio ! - Copyright ORBIFLY Dicembre 2007 - Disclaimer

ORBIFLY MET'MAP TEAM :

Programmazione e sviluppo : Alexandra Zaïnal
Concezione e sviluppo : Baudouin d'Aumeries
Co-Programmazione e sviluppo : Marc-Olivier Méhu
Supporto tecnico e logistico : Manuel Goepfert
Aiuto per la traduzione : Arnaldo La Scala

Contatto : metmap@orbifly.com




FONTI E CREDITI :

   NOAA